Terminal Aerodrome Forecast
Issued by NWS

Home | Current Version | Previous Version | Graphics & Text | Print | Product List | Glossary On
Versions: 1 2 3 4 5 6 7 8 9 10 11 12 13 14 15 16 17 18 19
000
FTUS43 KIWX 030520
TAFSBN
TAF
KSBN 030520Z 0306/0406 26004KT P6SM OVC035
     FM031200 26005KT P6SM OVC025
     FM031800 28006KT P6SM OVC035=

USA.gov is the U.S. government's official web portal to all federal, state and local government web resources and services.